sensor_id;sensor_type;location;lat;lon;timestamp;P1;durP1;ratioP1;P2;durP2;ratioP2
70667;SDS011;58242;51.250;-1.118;2023-07-13T00:01:19;3.05;;;2.40;;
70667;SDS011;58242;51.250;-1.118;2023-07-13T00:03:44;1.80;;;1.70;;
70667;SDS011;58242;51.250;-1.118;2023-07-13T00:06:10;2.40;;;2.08;;
70667;SDS011;58242;51.250;-1.118;2023-07-13T00:08:35;4.25;;;2.00;;
70667;SDS011;58242;51.250;-1.118;2023-07-13T00:11:01;2.40;;;2.20;;
70667;SDS011;58242;51.250;-1.118;2023-07-13T00:13:28;3.55;;;2.10;;
70667;SDS011;58242;51.250;-1.118;2023-07-13T00:15:54;2.00;;;1.90;;
70667;SDS011;58242;51.250;-1.118;2023-07-13T00:18:21;2.10;;;2.00;;
70667;SDS011;58242;51.250;-1.118;2023-07-13T00:20:46;2.65;;;2.20;;
70667;SDS011;58242;51.250;-1.118;2023-07-13T00:23:13;2.15;;;1.95;;
70667;SDS011;58242;51.250;-1.118;2023-07-13T00:25:39;2.90;;;2.45;;
70667;SDS011;58242;51.250;-1.118;2023-07-13T00:28:05;3.10;;;2.50;;
70667;SDS011;58242;51.250;-1.118;2023-07-13T00:30:30;2.28;;;2.10;;
70667;SDS011;58242;51.250;-1.118;2023-07-13T00:32:56;3.13;;;2.33;;
70667;SDS011;58242;51.250;-1.118;2023-07-13T00:35:22;2.70;;;2.50;;
70667;SDS011;58242;51.250;-1.118;2023-07-13T00:37:48;2.53;;;2.30;;
70667;SDS011;58242;51.250;-1.118;2023-07-13T00:40:15;2.42;;;2.20;;
70667;SDS011;58242;51.250;-1.118;2023-07-13T00:42:41;2.28;;;2.17;;
70667;SDS011;58242;51.250;-1.118;2023-07-13T00:47:39;2.20;;;2.10;;
70667;SDS011;58242;51.250;-1.118;2023-07-13T00:50:07;2.40;;;2.30;;
70667;SDS011;58242;51.250;-1.118;2023-07-13T00:52:35;2.63;;;2.53;;
70667;SDS011;58242;51.250;-1.118;2023-07-13T00:55:03;2.40;;;2.30;;
70667;SDS011;58242;51.250;-1.118;2023-07-13T00:57:29;3.58;;;3.17;;
70667;SDS011;58242;51.250;-1.118;2023-07-13T00:59:55;3.03;;;2.70;;
70667;SDS011;58242;51.250;-1.118;2023-07-13T01:02:25;3.00;;;2.80;;
70667;SDS011;58242;51.250;-1.118;2023-07-13T01:04:51;2.92;;;2.72;;
70667;SDS011;58242;51.250;-1.118;2023-07-13T01:07:17;3.03;;;2.78;;
70667;SDS011;58242;51.250;-1.118;2023-07-13T01:09:44;5.47;;;2.80;;
70667;SDS011;58242;51.250;-1.118;2023-07-13T01:12:10;2.55;;;2.40;;
70667;SDS011;58242;51.250;-1.118;2023-07-13T01:14:35;3.08;;;2.65;;
70667;SDS011;58242;51.250;-1.118;2023-07-13T01:17:02;2.53;;;2.40;;
70667;SDS011;58242;51.250;-1.118;2023-07-13T01:19:42;2.70;;;2.50;;
70667;SDS011;58242;51.250;-1.118;2023-07-13T01:22:10;3.03;;;2.70;;
70667;SDS011;58242;51.250;-1.118;2023-07-13T01:24:37;3.05;;;2.55;;
70667;SDS011;58242;51.250;-1.118;2023-07-13T01:27:04;2.90;;;2.60;;
70667;SDS011;58242;51.250;-1.118;2023-07-13T01:29:31;2.83;;;2.38;;
70667;SDS011;58242;51.250;-1.118;2023-07-13T01:31:58;2.80;;;2.42;;
70667;SDS011;58242;51.250;-1.118;2023-07-13T01:34:27;2.75;;;2.38;;
70667;SDS011;58242;51.250;-1.118;2023-07-13T01:36:52;2.70;;;2.50;;
70667;SDS011;58242;51.250;-1.118;2023-07-13T01:39:20;2.33;;;2.22;;
70667;SDS011;58242;51.250;-1.118;2023-07-13T01:41:46;3.42;;;2.63;;
70667;SDS011;58242;51.250;-1.118;2023-07-13T01:44:12;2.13;;;2.00;;
70667;SDS011;58242;51.250;-1.118;2023-07-13T01:46:37;2.38;;;2.28;;
70667;SDS011;58242;51.250;-1.118;2023-07-13T01:49:03;2.20;;;2.10;;
70667;SDS011;58242;51.250;-1.118;2023-07-13T01:51:28;2.67;;;2.28;;
70667;SDS011;58242;51.250;-1.118;2023-07-13T01:53:53;2.30;;;2.20;;
70667;SDS011;58242;51.250;-1.118;2023-07-13T01:56:19;2.55;;;2.45;;
70667;SDS011;58242;51.250;-1.118;2023-07-13T01:58:45;2.60;;;2.40;;
70667;SDS011;58242;51.250;-1.118;2023-07-13T02:01:10;2.72;;;2.42;;
70667;SDS011;58242;51.250;-1.118;2023-07-13T02:03:36;2.33;;;2.22;;
70667;SDS011;58242;51.250;-1.118;2023-07-13T02:06:01;2.03;;;1.92;;
70667;SDS011;58242;51.250;-1.118;2023-07-13T02:08:27;2.33;;;2.15;;
70667;SDS011;58242;51.250;-1.118;2023-07-13T02:10:53;4.07;;;2.30;;
70667;SDS011;58242;51.250;-1.118;2023-07-13T02:13:18;2.10;;;2.00;;
70667;SDS011;58242;51.250;-1.118;2023-07-13T02:15:43;2.30;;;2.20;;
70667;SDS011;58242;51.250;-1.118;2023-07-13T02:18:09;2.33;;;2.15;;
70667;SDS011;58242;51.250;-1.118;2023-07-13T02:20:34;2.03;;;1.83;;
70667;SDS011;58242;51.250;-1.118;2023-07-13T02:23:00;2.15;;;2.00;;
70667;SDS011;58242;51.250;-1.118;2023-07-13T02:25:25;1.92;;;1.83;;
70667;SDS011;58242;51.250;-1.118;2023-07-13T02:27:52;2.00;;;1.90;;
70667;SDS011;58242;51.250;-1.118;2023-07-13T02:30:17;2.05;;;1.95;;
70667;SDS011;58242;51.250;-1.118;2023-07-13T02:32:43;2.05;;;1.92;;
70667;SDS011;58242;51.250;-1.118;2023-07-13T02:35:09;1.60;;;1.60;;
70667;SDS011;58242;51.250;-1.118;2023-07-13T02:37:35;1.90;;;1.90;;
70667;SDS011;58242;51.250;-1.118;2023-07-13T02:40:01;2.05;;;1.90;;
70667;SDS011;58242;51.250;-1.118;2023-07-13T02:42:33;2.10;;;2.00;;
70667;SDS011;58242;51.250;-1.118;2023-07-13T02:44:59;1.90;;;1.90;;
70667;SDS011;58242;51.250;-1.118;2023-07-13T02:47:25;1.92;;;1.90;;
70667;SDS011;58242;51.250;-1.118;2023-07-13T02:49:51;2.42;;;2.22;;
70667;SDS011;58242;51.250;-1.118;2023-07-13T02:52:17;2.10;;;2.00;;
70667;SDS011;58242;51.250;-1.118;2023-07-13T02:54:42;2.20;;;2.10;;
70667;SDS011;58242;51.250;-1.118;2023-07-13T02:57:08;2.00;;;1.90;;
70667;SDS011;58242;51.250;-1.118;2023-07-13T02:59:33;2.17;;;2.08;;
70667;SDS011;58242;51.250;-1.118;2023-07-13T03:02:00;2.05;;;1.95;;
70667;SDS011;58242;51.250;-1.118;2023-07-13T03:04:26;2.10;;;2.00;;
70667;SDS011;58242;51.250;-1.118;2023-07-13T03:06:52;2.38;;;2.20;;
70667;SDS011;58242;51.250;-1.118;2023-07-13T03:09:17;2.25;;;2.15;;
70667;SDS011;58242;51.250;-1.118;2023-07-13T03:11:43;2.40;;;2.20;;
70667;SDS011;58242;51.250;-1.118;2023-07-13T03:14:09;2.35;;;2.15;;
70667;SDS011;58242;51.250;-1.118;2023-07-13T03:16:34;2.40;;;2.30;;
70667;SDS011;58242;51.250;-1.118;2023-07-13T03:19:01;2.40;;;2.30;;
70667;SDS011;58242;51.250;-1.118;2023-07-13T03:21:26;2.40;;;2.30;;
70667;SDS011;58242;51.250;-1.118;2023-07-13T03:23:53;2.40;;;2.25;;
70667;SDS011;58242;51.250;-1.118;2023-07-13T03:26:19;3.63;;;3.10;;
70667;SDS011;58242;51.250;-1.118;2023-07-13T03:28:45;3.05;;;2.65;;
70667;SDS011;58242;51.250;-1.118;2023-07-13T03:31:16;2.90;;;2.70;;
70667;SDS011;58242;51.250;-1.118;2023-07-13T03:33:44;2.90;;;2.60;;
70667;SDS011;58242;51.250;-1.118;2023-07-13T03:36:13;2.60;;;2.50;;
70667;SDS011;58242;51.250;-1.118;2023-07-13T03:38:41;2.60;;;2.50;;
70667;SDS011;58242;51.250;-1.118;2023-07-13T03:41:06;2.70;;;2.60;;
70667;SDS011;58242;51.250;-1.118;2023-07-13T03:43:32;2.63;;;2.50;;
70667;SDS011;58242;51.250;-1.118;2023-07-13T03:45:57;3.03;;;2.75;;
70667;SDS011;58242;51.250;-1.118;2023-07-13T03:48:23;2.63;;;2.53;;
70667;SDS011;58242;51.250;-1.118;2023-07-13T03:50:49;2.50;;;2.40;;
70667;SDS011;58242;51.250;-1.118;2023-07-13T03:53:14;3.08;;;2.80;;
70667;SDS011;58242;51.250;-1.118;2023-07-13T03:55:40;2.47;;;2.38;;
70667;SDS011;58242;51.250;-1.118;2023-07-13T04:00:54;2.50;;;2.40;;
70667;SDS011;58242;51.250;-1.118;2023-07-13T04:03:20;2.00;;;2.00;;
70667;SDS011;58242;51.250;-1.118;2023-07-13T04:05:46;2.90;;;2.60;;
70667;SDS011;58242;51.250;-1.118;2023-07-13T04:08:11;2.50;;;2.40;;
70667;SDS011;58242;51.250;-1.118;2023-07-13T04:10:37;3.00;;;2.80;;
70667;SDS011;58242;51.250;-1.118;2023-07-13T04:13:04;2.75;;;2.60;;
70667;SDS011;58242;51.250;-1.118;2023-07-13T04:15:30;2.78;;;2.67;;
70667;SDS011;58242;51.250;-1.118;2023-07-13T04:17:56;3.17;;;2.97;;
70667;SDS011;58242;51.250;-1.118;2023-07-13T04:20:22;2.40;;;2.30;;
70667;SDS011;58242;51.250;-1.118;2023-07-13T04:22:49;3.05;;;2.85;;
70667;SDS011;58242;51.250;-1.118;2023-07-13T04:25:15;2.90;;;2.80;;
70667;SDS011;58242;51.250;-1.118;2023-07-13T04:27:40;2.90;;;2.80;;
70667;SDS011;58242;51.250;-1.118;2023-07-13T04:30:06;3.25;;;2.60;;
70667;SDS011;58242;51.250;-1.118;2023-07-13T04:32:32;2.53;;;2.42;;
70667;SDS011;58242;51.250;-1.118;2023-07-13T04:34:58;3.00;;;2.90;;
70667;SDS011;58242;51.250;-1.118;2023-07-13T04:37:27;3.13;;;2.95;;
70667;SDS011;58242;51.250;-1.118;2023-07-13T04:39:52;2.70;;;2.60;;
70667;SDS011;58242;51.250;-1.118;2023-07-13T04:42:18;2.38;;;2.28;;
70667;SDS011;58242;51.250;-1.118;2023-07-13T04:44:50;2.35;;;2.25;;
70667;SDS011;58242;51.250;-1.118;2023-07-13T04:47:17;3.63;;;2.60;;
70667;SDS011;58242;51.250;-1.118;2023-07-13T04:49:45;2.40;;;2.30;;
70667;SDS011;58242;51.250;-1.118;2023-07-13T04:52:11;2.35;;;2.20;;
70667;SDS011;58242;51.250;-1.118;2023-07-13T04:54:37;2.90;;;2.80;;
70667;SDS011;58242;51.250;-1.118;2023-07-13T04:57:03;2.60;;;2.50;;
70667;SDS011;58242;51.250;-1.118;2023-07-13T04:59:31;2.60;;;2.50;;
70667;SDS011;58242;51.250;-1.118;2023-07-13T05:01:57;3.90;;;3.03;;
70667;SDS011;58242;51.250;-1.118;2023-07-13T05:04:23;2.78;;;2.58;;
70667;SDS011;58242;51.250;-1.118;2023-07-13T05:06:49;3.40;;;3.20;;
70667;SDS011;58242;51.250;-1.118;2023-07-13T05:09:14;3.20;;;3.00;;
70667;SDS011;58242;51.250;-1.118;2023-07-13T05:11:40;5.50;;;3.00;;
70667;SDS011;58242;51.250;-1.118;2023-07-13T05:14:05;2.60;;;2.40;;
70667;SDS011;58242;51.250;-1.118;2023-07-13T05:16:31;2.50;;;2.40;;
70667;SDS011;58242;51.250;-1.118;2023-07-13T05:18:57;2.65;;;2.45;;
70667;SDS011;58242;51.250;-1.118;2023-07-13T05:21:23;2.85;;;2.50;;
70667;SDS011;58242;51.250;-1.118;2023-07-13T05:23:49;2.78;;;2.60;;
70667;SDS011;58242;51.250;-1.118;2023-07-13T05:26:15;4.15;;;2.60;;
70667;SDS011;58242;51.250;-1.118;2023-07-13T05:28:40;2.58;;;2.47;;
70667;SDS011;58242;51.250;-1.118;2023-07-13T05:31:08;2.15;;;2.05;;
70667;SDS011;58242;51.250;-1.118;2023-07-13T05:33:34;2.58;;;2.38;;
70667;SDS011;58242;51.250;-1.118;2023-07-13T05:36:00;2.65;;;2.45;;
70667;SDS011;58242;51.250;-1.118;2023-07-13T05:38:26;2.55;;;2.45;;
70667;SDS011;58242;51.250;-1.118;2023-07-13T05:40:53;2.28;;;2.17;;
70667;SDS011;58242;51.250;-1.118;2023-07-13T05:43:20;3.15;;;2.60;;
70667;SDS011;58242;51.250;-1.118;2023-07-13T05:45:46;2.58;;;2.38;;
70667;SDS011;58242;51.250;-1.118;2023-07-13T05:48:12;2.58;;;2.35;;
70667;SDS011;58242;51.250;-1.118;2023-07-13T05:50:37;2.40;;;2.20;;
70667;SDS011;58242;51.250;-1.118;2023-07-13T05:53:03;2.67;;;2.47;;
70667;SDS011;58242;51.250;-1.118;2023-07-13T05:55:29;2.88;;;2.42;;
70667;SDS011;58242;51.250;-1.118;2023-07-13T05:57:55;2.42;;;2.33;;
70667;SDS011;58242;51.250;-1.118;2023-07-13T06:00:20;2.97;;;2.78;;
70667;SDS011;58242;51.250;-1.118;2023-07-13T06:02:46;2.35;;;2.25;;
70667;SDS011;58242;51.250;-1.118;2023-07-13T06:05:11;2.35;;;1.90;;
70667;SDS011;58242;51.250;-1.118;2023-07-13T06:07:37;2.45;;;2.35;;
70667;SDS011;58242;51.250;-1.118;2023-07-13T06:10:03;2.05;;;1.95;;
70667;SDS011;58242;51.250;-1.118;2023-07-13T06:12:28;2.67;;;2.58;;
70667;SDS011;58242;51.250;-1.118;2023-07-13T06:14:54;1.92;;;1.90;;
70667;SDS011;58242;51.250;-1.118;2023-07-13T06:17:20;2.63;;;2.42;;
70667;SDS011;58242;51.250;-1.118;2023-07-13T06:19:45;3.40;;;2.13;;
70667;SDS011;58242;51.250;-1.118;2023-07-13T06:22:11;2.22;;;2.10;;
70667;SDS011;58242;51.250;-1.118;2023-07-13T06:24:37;2.42;;;2.15;;
70667;SDS011;58242;51.250;-1.118;2023-07-13T06:27:02;2.28;;;2.17;;
70667;SDS011;58242;51.250;-1.118;2023-07-13T06:29:28;2.30;;;2.10;;
70667;SDS011;58242;51.250;-1.118;2023-07-13T06:31:53;3.13;;;2.08;;
70667;SDS011;58242;51.250;-1.118;2023-07-13T06:34:19;3.38;;;2.35;;
70667;SDS011;58242;51.250;-1.118;2023-07-13T06:36:45;2.47;;;2.13;;
70667;SDS011;58242;51.250;-1.118;2023-07-13T06:39:10;1.70;;;1.60;;
70667;SDS011;58242;51.250;-1.118;2023-07-13T06:41:36;1.70;;;1.60;;
70667;SDS011;58242;51.250;-1.118;2023-07-13T06:44:01;2.35;;;1.90;;
70667;SDS011;58242;51.250;-1.118;2023-07-13T06:46:28;2.38;;;2.25;;
70667;SDS011;58242;51.250;-1.118;2023-07-13T06:48:54;2.08;;;1.85;;
70667;SDS011;58242;51.250;-1.118;2023-07-13T06:51:19;2.47;;;2.28;;
70667;SDS011;58242;51.250;-1.118;2023-07-13T06:53:45;2.40;;;1.90;;
70667;SDS011;58242;51.250;-1.118;2023-07-13T06:56:10;3.30;;;2.33;;
70667;SDS011;58242;51.250;-1.118;2023-07-13T06:58:36;3.08;;;2.20;;
70667;SDS011;58242;51.250;-1.118;2023-07-13T07:01:02;2.60;;;2.40;;
70667;SDS011;58242;51.250;-1.118;2023-07-13T07:03:28;2.05;;;1.95;;
70667;SDS011;58242;51.250;-1.118;2023-07-13T07:05:54;4.30;;;1.80;;
70667;SDS011;58242;51.250;-1.118;2023-07-13T07:08:19;2.25;;;2.15;;
70667;SDS011;58242;51.250;-1.118;2023-07-13T07:10:45;2.00;;;1.90;;
70667;SDS011;58242;51.250;-1.118;2023-07-13T07:13:11;2.15;;;1.77;;
70667;SDS011;58242;51.250;-1.118;2023-07-13T07:15:37;2.53;;;2.33;;
70667;SDS011;58242;51.250;-1.118;2023-07-13T07:18:02;3.33;;;1.92;;
70667;SDS011;58242;51.250;-1.118;2023-07-13T07:20:28;2.00;;;1.90;;
70667;SDS011;58242;51.250;-1.118;2023-07-13T07:22:55;3.80;;;2.42;;
70667;SDS011;58242;51.250;-1.118;2023-07-13T07:25:21;1.95;;;1.85;;
70667;SDS011;58242;51.250;-1.118;2023-07-13T07:27:47;1.65;;;1.65;;
70667;SDS011;58242;51.250;-1.118;2023-07-13T07:30:12;1.77;;;1.67;;
70667;SDS011;58242;51.250;-1.118;2023-07-13T07:32:38;1.80;;;1.80;;
70667;SDS011;58242;51.250;-1.118;2023-07-13T07:35:04;1.80;;;1.70;;
70667;SDS011;58242;51.250;-1.118;2023-07-13T07:37:30;1.83;;;1.73;;
70667;SDS011;58242;51.250;-1.118;2023-07-13T07:39:56;1.77;;;1.70;;
70667;SDS011;58242;51.250;-1.118;2023-07-13T07:42:21;1.65;;;1.55;;
70667;SDS011;58242;51.250;-1.118;2023-07-13T07:44:47;2.10;;;1.95;;
70667;SDS011;58242;51.250;-1.118;2023-07-13T07:47:12;1.40;;;1.40;;
70667;SDS011;58242;51.250;-1.118;2023-07-13T07:49:38;1.88;;;1.70;;
70667;SDS011;58242;51.250;-1.118;2023-07-13T07:52:04;2.15;;;2.05;;
70667;SDS011;58242;51.250;-1.118;2023-07-13T07:54:30;2.00;;;1.90;;
70667;SDS011;58242;51.250;-1.118;2023-07-13T07:56:55;2.03;;;1.90;;
70667;SDS011;58242;51.250;-1.118;2023-07-13T07:59:21;2.97;;;1.92;;
70667;SDS011;58242;51.250;-1.118;2023-07-13T08:01:46;1.92;;;1.83;;
70667;SDS011;58242;51.250;-1.118;2023-07-13T08:04:15;2.75;;;2.55;;
70667;SDS011;58242;51.250;-1.118;2023-07-13T08:06:41;2.00;;;1.90;;
70667;SDS011;58242;51.250;-1.118;2023-07-13T08:09:07;2.40;;;2.00;;
70667;SDS011;58242;51.250;-1.118;2023-07-13T08:11:33;3.67;;;2.20;;
70667;SDS011;58242;51.250;-1.118;2023-07-13T08:13:59;2.80;;;2.00;;
70667;SDS011;58242;51.250;-1.118;2023-07-13T08:16:25;2.15;;;2.05;;
70667;SDS011;58242;51.250;-1.118;2023-07-13T08:18:51;2.20;;;2.00;;
70667;SDS011;58242;51.250;-1.118;2023-07-13T08:21:16;2.17;;;1.90;;
70667;SDS011;58242;51.250;-1.118;2023-07-13T08:23:45;1.88;;;1.77;;
70667;SDS011;58242;51.250;-1.118;2023-07-13T08:26:10;2.15;;;2.05;;
70667;SDS011;58242;51.250;-1.118;2023-07-13T08:28:36;2.00;;;1.90;;
70667;SDS011;58242;51.250;-1.118;2023-07-13T08:31:02;2.03;;;1.83;;
70667;SDS011;58242;51.250;-1.118;2023-07-13T08:33:29;1.75;;;1.65;;
70667;SDS011;58242;51.250;-1.118;2023-07-13T08:35:55;1.50;;;1.40;;
70667;SDS011;58242;51.250;-1.118;2023-07-13T08:38:21;1.98;;;1.85;;
70667;SDS011;58242;51.250;-1.118;2023-07-13T08:40:51;2.00;;;1.75;;
70667;SDS011;58242;51.250;-1.118;2023-07-13T08:43:26;1.92;;;1.83;;
70667;SDS011;58242;51.250;-1.118;2023-07-13T08:45:59;2.10;;;2.00;;
70667;SDS011;58242;51.250;-1.118;2023-07-13T08:48:31;1.88;;;1.77;;
70667;SDS011;58242;51.250;-1.118;2023-07-13T08:51:16;1.95;;;1.80;;
70667;SDS011;58242;51.250;-1.118;2023-07-13T08:53:57;2.13;;;2.03;;
70667;SDS011;58242;51.250;-1.118;2023-07-13T08:56:27;2.45;;;1.85;;
70667;SDS011;58242;51.250;-1.118;2023-07-13T08:58:58;2.30;;;2.20;;
70667;SDS011;58242;51.250;-1.118;2023-07-13T09:04:19;2.65;;;2.45;;
70667;SDS011;58242;51.250;-1.118;2023-07-13T09:09:35;2.28;;;2.17;;
70667;SDS011;58242;51.250;-1.118;2023-07-13T09:18:01;2.45;;;2.33;;
70667;SDS011;58242;51.250;-1.118;2023-07-13T09:20:39;2.20;;;2.10;;
70667;SDS011;58242;51.250;-1.118;2023-07-13T09:23:12;2.92;;;2.08;;
70667;SDS011;58242;51.250;-1.118;2023-07-13T09:25:43;1.75;;;1.65;;
70667;SDS011;58242;51.250;-1.118;2023-07-13T09:33:18;2.40;;;2.20;;
70667;SDS011;58242;51.250;-1.118;2023-07-13T09:35:44;1.73;;;1.73;;
70667;SDS011;58242;51.250;-1.118;2023-07-13T09:40:53;1.95;;;1.88;;
70667;SDS011;58242;51.250;-1.118;2023-07-13T09:43:26;2.20;;;2.10;;
70667;SDS011;58242;51.250;-1.118;2023-07-13T09:45:53;2.30;;;2.20;;
70667;SDS011;58242;51.250;-1.118;2023-07-13T09:48:19;2.03;;;1.92;;
70667;SDS011;58242;51.250;-1.118;2023-07-13T09:50:45;2.10;;;2.00;;
70667;SDS011;58242;51.250;-1.118;2023-07-13T09:53:19;2.67;;;2.47;;
70667;SDS011;58242;51.250;-1.118;2023-07-13T09:55:46;2.20;;;2.10;;
70667;SDS011;58242;51.250;-1.118;2023-07-13T09:58:17;2.08;;;1.98;;
70667;SDS011;58242;51.250;-1.118;2023-07-13T10:00:54;1.70;;;1.60;;
70667;SDS011;58242;51.250;-1.118;2023-07-13T10:03:33;2.15;;;2.05;;
70667;SDS011;58242;51.250;-1.118;2023-07-13T10:06:15;1.58;;;1.58;;
70667;SDS011;58242;51.250;-1.118;2023-07-13T10:08:44;2.03;;;1.92;;
70667;SDS011;58242;51.250;-1.118;2023-07-13T10:11:12;1.67;;;1.65;;
70667;SDS011;58242;51.250;-1.118;2023-07-13T10:14:28;1.90;;;1.80;;
70667;SDS011;58242;51.250;-1.118;2023-07-13T10:16:35;2.50;;;1.92;;
70667;SDS011;58242;51.250;-1.118;2023-07-13T10:19:11;2.00;;;1.90;;
70667;SDS011;58242;51.250;-1.118;2023-07-13T10:21:55;1.67;;;1.67;;
70667;SDS011;58242;51.250;-1.118;2023-07-13T10:24:29;1.60;;;1.50;;
70667;SDS011;58242;51.250;-1.118;2023-07-13T10:29:39;1.70;;;1.70;;
70667;SDS011;58242;51.250;-1.118;2023-07-13T10:32:11;1.83;;;1.73;;
70667;SDS011;58242;51.250;-1.118;2023-07-13T10:34:38;2.72;;;1.80;;
70667;SDS011;58242;51.250;-1.118;2023-07-13T10:37:05;1.80;;;1.73;;
70667;SDS011;58242;51.250;-1.118;2023-07-13T10:39:39;1.60;;;1.60;;
70667;SDS011;58242;51.250;-1.118;2023-07-13T10:42:05;1.85;;;1.63;;
70667;SDS011;58242;51.250;-1.118;2023-07-13T10:44:37;1.52;;;1.52;;
70667;SDS011;58242;51.250;-1.118;2023-07-13T10:47:04;1.60;;;1.50;;
70667;SDS011;58242;51.250;-1.118;2023-07-13T10:49:39;1.90;;;1.80;;
70667;SDS011;58242;51.250;-1.118;2023-07-13T10:52:35;2.15;;;2.05;;
70667;SDS011;58242;51.250;-1.118;2023-07-13T10:55:31;1.90;;;1.80;;
70667;SDS011;58242;51.250;-1.118;2023-07-13T10:57:59;1.80;;;1.70;;
70667;SDS011;58242;51.250;-1.118;2023-07-13T11:00:42;1.80;;;1.70;;
70667;SDS011;58242;51.250;-1.118;2023-07-13T11:03:12;1.65;;;1.65;;
70667;SDS011;58242;51.250;-1.118;2023-07-13T11:05:40;1.58;;;1.58;;
70667;SDS011;58242;51.250;-1.118;2023-07-13T11:08:16;1.80;;;1.70;;
70667;SDS011;58242;51.250;-1.118;2023-07-13T11:10:50;1.70;;;1.60;;
70667;SDS011;58242;51.250;-1.118;2023-07-13T11:13:36;1.30;;;1.30;;
70667;SDS011;58242;51.250;-1.118;2023-07-13T11:25:37;1.50;;;1.40;;
70667;SDS011;58242;51.250;-1.118;2023-07-13T11:33:45;1.85;;;1.75;;
70667;SDS011;58242;51.250;-1.118;2023-07-13T11:36:17;1.70;;;1.60;;
70667;SDS011;58242;51.250;-1.118;2023-07-13T11:38:57;1.45;;;1.45;;
70667;SDS011;58242;51.250;-1.118;2023-07-13T11:41:26;2.13;;;1.90;;
70667;SDS011;58242;51.250;-1.118;2023-07-13T11:44:01;1.55;;;1.55;;
70667;SDS011;58242;51.250;-1.118;2023-07-13T11:46:31;2.00;;;1.83;;
70667;SDS011;58242;51.250;-1.118;2023-07-13T11:48:57;1.55;;;1.55;;
70667;SDS011;58242;51.250;-1.118;2023-07-13T11:51:23;2.15;;;2.05;;
70667;SDS011;58242;51.250;-1.118;2023-07-13T11:53:53;1.90;;;1.90;;
70667;SDS011;58242;51.250;-1.118;2023-07-13T11:56:20;2.30;;;2.20;;
70667;SDS011;58242;51.250;-1.118;2023-07-13T11:58:49;1.88;;;1.80;;
70667;SDS011;58242;51.250;-1.118;2023-07-13T12:01:28;1.77;;;1.70;;
70667;SDS011;58242;51.250;-1.118;2023-07-13T12:03:58;2.42;;;2.33;;
70667;SDS011;58242;51.250;-1.118;2023-07-13T12:06:30;2.08;;;1.98;;
70667;SDS011;58242;51.250;-1.118;2023-07-13T12:09:02;2.67;;;2.58;;
70667;SDS011;58242;51.250;-1.118;2023-07-13T12:11:39;2.30;;;2.20;;
70667;SDS011;58242;51.250;-1.118;2023-07-13T12:14:12;2.30;;;1.98;;
70667;SDS011;58242;51.250;-1.118;2023-07-13T12:16:40;1.88;;;1.88;;
70667;SDS011;58242;51.250;-1.118;2023-07-13T12:19:28;2.10;;;2.00;;
70667;SDS011;58242;51.250;-1.118;2023-07-13T12:21:53;2.17;;;2.08;;
70667;SDS011;58242;51.250;-1.118;2023-07-13T12:24:22;1.98;;;1.98;;
70667;SDS011;58242;51.250;-1.118;2023-07-13T12:27:02;1.98;;;1.90;;
70667;SDS011;58242;51.250;-1.118;2023-07-13T12:29:30;1.80;;;1.80;;
70667;SDS011;58242;51.250;-1.118;2023-07-13T12:31:57;1.73;;;1.73;;
70667;SDS011;58242;51.250;-1.118;2023-07-13T12:34:23;2.10;;;2.00;;
70667;SDS011;58242;51.250;-1.118;2023-07-13T12:36:51;2.50;;;1.83;;
70667;SDS011;58242;51.250;-1.118;2023-07-13T12:41:49;2.40;;;2.30;;
70667;SDS011;58242;51.250;-1.118;2023-07-13T12:44:49;2.60;;;2.50;;
70667;SDS011;58242;51.250;-1.118;2023-07-13T12:47:12;2.20;;;2.10;;
70667;SDS011;58242;51.250;-1.118;2023-07-13T12:49:48;2.20;;;2.10;;
70667;SDS011;58242;51.250;-1.118;2023-07-13T12:52:20;2.35;;;2.25;;
70667;SDS011;58242;51.250;-1.118;2023-07-13T12:55:05;2.85;;;2.67;;
70667;SDS011;58242;51.250;-1.118;2023-07-13T12:57:57;3.10;;;2.90;;
70667;SDS011;58242;51.250;-1.118;2023-07-13T13:00:30;2.33;;;2.22;;
70667;SDS011;58242;51.250;-1.118;2023-07-13T13:03:07;1.80;;;1.80;;
70667;SDS011;58242;51.250;-1.118;2023-07-13T13:05:48;1.90;;;1.77;;
70667;SDS011;58242;51.250;-1.118;2023-07-13T13:08:14;2.50;;;2.40;;
70667;SDS011;58242;51.250;-1.118;2023-07-13T13:10:40;2.30;;;2.10;;
70667;SDS011;58242;51.250;-1.118;2023-07-13T13:13:06;2.35;;;2.25;;
70667;SDS011;58242;51.250;-1.118;2023-07-13T13:15:31;2.42;;;2.05;;
70667;SDS011;58242;51.250;-1.118;2023-07-13T13:17:58;2.63;;;2.50;;
70667;SDS011;58242;51.250;-1.118;2023-07-13T13:20:24;2.20;;;2.10;;
70667;SDS011;58242;51.250;-1.118;2023-07-13T13:22:51;2.55;;;2.35;;
70667;SDS011;58242;51.250;-1.118;2023-07-13T13:25:17;2.60;;;2.40;;
70667;SDS011;58242;51.250;-1.118;2023-07-13T13:27:43;2.80;;;2.60;;
70667;SDS011;58242;51.250;-1.118;2023-07-13T13:30:11;3.55;;;2.80;;
70667;SDS011;58242;51.250;-1.118;2023-07-13T13:32:41;2.10;;;2.00;;
70667;SDS011;58242;51.250;-1.118;2023-07-13T13:35:14;2.40;;;2.30;;
70667;SDS011;58242;51.250;-1.118;2023-07-13T13:37:45;2.40;;;2.30;;
70667;SDS011;58242;51.250;-1.118;2023-07-13T13:40:20;2.63;;;2.53;;
70667;SDS011;58242;51.250;-1.118;2023-07-13T13:42:49;2.60;;;2.40;;
70667;SDS011;58242;51.250;-1.118;2023-07-13T13:45:16;2.72;;;2.63;;
70667;SDS011;58242;51.250;-1.118;2023-07-13T13:47:43;2.13;;;2.03;;
70667;SDS011;58242;51.250;-1.118;2023-07-13T13:50:16;3.10;;;2.80;;
70667;SDS011;58242;51.250;-1.118;2023-07-13T13:52:44;2.67;;;2.42;;
70667;SDS011;58242;51.250;-1.118;2023-07-13T13:55:14;2.60;;;2.40;;
70667;SDS011;58242;51.250;-1.118;2023-07-13T13:57:44;4.00;;;2.50;;
70667;SDS011;58242;51.250;-1.118;2023-07-13T14:00:10;2.60;;;2.40;;
70667;SDS011;58242;51.250;-1.118;2023-07-13T14:05:13;4.00;;;3.00;;
70667;SDS011;58242;51.250;-1.118;2023-07-13T14:07:41;3.15;;;2.85;;
70667;SDS011;58242;51.250;-1.118;2023-07-13T14:10:14;2.65;;;2.45;;
70667;SDS011;58242;51.250;-1.118;2023-07-13T14:12:45;2.72;;;2.55;;
70667;SDS011;58242;51.250;-1.118;2023-07-13T14:15:13;3.42;;;2.92;;
70667;SDS011;58242;51.250;-1.118;2023-07-13T14:17:45;3.20;;;2.85;;
70667;SDS011;58242;51.250;-1.118;2023-07-13T14:20:14;3.05;;;2.85;;
70667;SDS011;58242;51.250;-1.118;2023-07-13T14:22:40;3.45;;;2.40;;
70667;SDS011;58242;51.250;-1.118;2023-07-13T14:25:10;3.13;;;2.85;;
70667;SDS011;58242;51.250;-1.118;2023-07-13T14:27:37;2.58;;;2.38;;
70667;SDS011;58242;51.250;-1.118;2023-07-13T14:30:02;2.42;;;2.22;;
70667;SDS011;58242;51.250;-1.118;2023-07-13T14:32:28;2.20;;;2.10;;
70667;SDS011;58242;51.250;-1.118;2023-07-13T14:34:54;3.80;;;2.45;;
70667;SDS011;58242;51.250;-1.118;2023-07-13T14:37:20;3.08;;;2.70;;
70667;SDS011;58242;51.250;-1.118;2023-07-13T14:39:45;2.10;;;2.00;;
70667;SDS011;58242;51.250;-1.118;2023-07-13T14:42:14;2.22;;;2.13;;
70667;SDS011;58242;51.250;-1.118;2023-07-13T14:44:40;2.63;;;2.42;;
70667;SDS011;58242;51.250;-1.118;2023-07-13T14:47:06;2.42;;;2.22;;
70667;SDS011;58242;51.250;-1.118;2023-07-13T14:49:36;2.33;;;2.22;;
70667;SDS011;58242;51.250;-1.118;2023-07-13T14:54:46;2.70;;;2.50;;
70667;SDS011;58242;51.250;-1.118;2023-07-13T14:57:18;4.05;;;2.88;;
70667;SDS011;58242;51.250;-1.118;2023-07-13T14:59:45;2.70;;;2.50;;
70667;SDS011;58242;51.250;-1.118;2023-07-13T15:02:18;2.55;;;2.45;;
70667;SDS011;58242;51.250;-1.118;2023-07-13T15:04:52;2.58;;;2.38;;
70667;SDS011;58242;51.250;-1.118;2023-07-13T15:07:18;3.15;;;2.88;;
70667;SDS011;58242;51.250;-1.118;2023-07-13T15:09:44;3.55;;;3.35;;
70667;SDS011;58242;51.250;-1.118;2023-07-13T15:12:10;3.70;;;2.75;;
70667;SDS011;58242;51.250;-1.118;2023-07-13T15:14:36;2.63;;;2.42;;
70667;SDS011;58242;51.250;-1.118;2023-07-13T15:17:01;2.75;;;2.65;;
70667;SDS011;58242;51.250;-1.118;2023-07-13T15:19:27;2.72;;;2.47;;
70667;SDS011;58242;51.250;-1.118;2023-07-13T15:21:53;2.22;;;2.13;;
70667;SDS011;58242;51.250;-1.118;2023-07-13T15:24:21;3.17;;;2.47;;
70667;SDS011;58242;51.250;-1.118;2023-07-13T15:26:46;2.38;;;2.28;;
70667;SDS011;58242;51.250;-1.118;2023-07-13T15:29:14;2.50;;;2.40;;